Time;durP1;ratioP1;P1;durP2;ratioP2;P2;SDS_P1;SDS_P2;PMS_P1;PMS_P2;Temp;Humidity;BMP_temperature;BMP_pressure;BME280_temperature;BME280_humidity;BME280_pressure;Samples;Min_cycle;Max_cycle;Signal;HPM_P1;HPM_P2
2023/10/10 00:03:09;;;;;;;7.47;3.80;;;20.10;99.90;;;;;;10043522;28;20390;-72
2023/10/10 00:08:02;;;;;;;13.05;5.75;;;20.10;99.90;;;;;;10040860;28;20064;-72
2023/10/10 00:12:53;;;;;;;10.05;4.53;;;20.10;99.90;;;;;;10044016;28;20029;-72
2023/10/10 00:17:44;;;;;;;10.23;4.50;;;20.00;99.90;;;;;;10052853;28;20037;-73
2023/10/10 00:22:36;;;;;;;7.63;4.63;;;19.90;99.90;;;;;;10047555;28;20088;-73
2023/10/10 00:27:31;;;;;;;10.30;3.60;;;19.80;99.90;;;;;;10038315;28;20029;-73
2023/10/10 00:32:26;;;;;;;12.73;4.57;;;19.70;99.90;;;;;;10056426;28;20036;-72
2023/10/10 00:37:21;;;;;;;;;;;19.70;99.90;;;;;;10044682;28;20075;-72
2023/10/10 00:42:19;;;;;;;11.25;4.00;;;19.60;99.90;;;;;;10054720;28;19991;-71
2023/10/10 00:47:26;;;;;;;14.40;5.03;;;19.70;99.90;;;;;;10053889;28;20037;-71
2023/10/10 00:52:17;;;;;;;9.50;4.60;;;19.70;99.90;;;;;;10047143;28;20047;-72
2023/10/10 00:57:08;;;;;;;10.43;3.80;;;19.60;99.90;;;;;;10052233;28;20040;-72
2023/10/10 01:02:00;;;;;;;7.40;3.95;;;19.60;99.90;;;;;;10041221;28;20031;-71
2023/10/10 01:06:51;;;;;;;7.80;3.28;;;19.50;99.90;;;;;;10047925;28;20013;-71
2023/10/10 01:11:43;;;;;;;10.27;3.80;;;19.50;99.90;;;;;;10040678;28;20059;-72
2023/10/10 01:16:33;;;;;;;12.93;3.33;;;19.40;99.90;;;;;;10043275;28;20400;-72
2023/10/10 01:21:33;;;;;;;8.18;3.08;;;19.40;99.90;;;;;;10043029;28;20034;-72
2023/10/10 01:26:28;;;;;;;12.27;3.65;;;19.30;99.90;;;;;;10044980;28;20022;-72
2023/10/10 01:31:19;;;;;;;7.47;3.72;;;19.30;99.90;;;;;;10035491;28;20030;-71
2023/10/10 01:36:30;;;;;;;13.57;4.22;;;19.40;99.90;;;;;;10037632;28;20416;-72
2023/10/10 01:41:31;;;;;;;9.27;4.45;;;19.30;99.90;;;;;;10055701;28;20513;-71
2023/10/10 01:46:28;;;;;;;11.18;4.13;;;19.20;99.90;;;;;;10051806;28;20028;-71
2023/10/10 01:51:19;;;;;;;8.40;3.38;;;19.00;99.90;;;;;;10034794;28;20474;-71
2023/10/10 01:56:13;;;;;;;9.27;3.38;;;18.90;99.90;;;;;;10042532;28;20044;-71
2023/10/10 02:01:16;;;;;;;7.30;3.55;;;18.90;99.90;;;;;;10041638;28;20045;-71
2023/10/10 02:06:10;;;;;;;10.63;3.40;;;18.90;99.90;;;;;;10044096;28;20018;-71
2023/10/10 02:11:02;;;;;;;8.95;3.85;;;18.80;99.90;;;;;;10030169;28;20057;-70
2023/10/10 02:15:53;;;;;;;7.85;3.83;;;18.80;99.90;;;;;;10045073;28;20022;-71
2023/10/10 02:25:37;;;;;;;10.05;3.42;;;18.60;99.90;;;;;;10038503;28;20040;-71
2023/10/10 02:30:37;;;;;;;8.40;4.35;;;18.60;99.90;;;;;;10041755;28;20055;-71
2023/10/10 02:35:34;;;;;;;6.15;3.35;;;18.60;99.90;;;;;;10032252;28;20022;-70
2023/10/10 02:40:31;;;;;;;9.65;4.05;;;18.60;99.90;;;;;;10037689;28;20055;-71
2023/10/10 02:45:28;;;;;;;6.80;4.03;;;18.60;99.90;;;;;;10041097;28;20860;-71
2023/10/10 02:55:33;;;;;;;6.05;3.65;;;18.50;99.90;;;;;;10036298;28;20032;-71
2023/10/10 03:05:20;;;;;;;7.05;3.28;;;18.40;99.90;;;;;;10042730;28;20128;-71
2023/10/10 03:15:27;;;;;;;12.50;3.47;;;18.40;99.90;;;;;;10062273;28;20029;-72
2023/10/10 03:20:34;;;;;;;8.27;3.72;;;18.30;99.90;;;;;;10057794;28;20557;-72
2023/10/10 03:25:36;;;;;;;11.70;4.55;;;18.20;99.90;;;;;;10039033;28;20113;-72
2023/10/10 03:35:34;;;;;;;9.10;3.22;;;18.10;99.90;;;;;;10059686;28;20021;-72
2023/10/10 03:41:03;;;;;;;9.38;3.05;;;18.20;99.90;;;;;;10060553;28;20069;-71
2023/10/10 05:23:37;;;;;;;9.05;4.32;;;17.40;99.90;;;;;;10047597;28;20468;-71
2023/10/10 05:28:30;;;;;;;7.38;3.53;;;17.40;99.90;;;;;;10031537;28;20104;-71
2023/10/10 05:33:21;;;;;;;12.68;4.88;;;17.30;99.90;;;;;;10039415;28;20513;-72
2023/10/10 05:38:12;;;;;;;7.30;3.70;;;17.40;99.90;;;;;;10040632;28;20116;-70
2023/10/10 05:43:06;;;;;;;10.65;3.70;;;17.30;99.90;;;;;;10055994;28;20387;-71
2023/10/10 05:47:57;;;;;;;6.97;3.67;;;17.40;99.90;;;;;;10034289;28;20291;-70
2023/10/10 05:52:54;;;;;;;10.93;3.60;;;17.50;99.90;;;;;;10032449;28;20311;-71
2023/10/10 05:57:45;;;;;;;7.07;3.55;;;17.40;99.90;;;;;;10042850;28;20050;-70
2023/10/10 06:02:46;;;;;;;9.40;3.47;;;17.50;99.90;;;;;;10046987;28;20030;-70
2023/10/10 06:07:38;;;;;;;9.15;4.05;;;17.40;99.90;;;;;;10046677;28;20053;-70
2023/10/10 06:12:30;;;;;;;9.23;4.22;;;17.40;99.90;;;;;;10043435;28;20539;-72
2023/10/10 06:17:24;;;;;;;10.13;3.50;;;17.50;99.90;;;;;;10044516;28;20041;-71
2023/10/10 06:22:15;;;;;;;9.80;3.33;;;17.50;99.90;;;;;;10034754;28;20033;-71
2023/10/10 06:27:08;;;;;;;8.73;3.95;;;17.60;99.90;;;;;;10034413;28;20030;-70
2023/10/10 06:31:59;;;;;;;8.13;3.40;;;17.60;99.90;;;;;;10041625;28;20036;-71
2023/10/10 06:36:52;;;;;;;9.60;4.57;;;17.50;99.90;;;;;;10038416;28;20034;-72
2023/10/10 06:41:47;;;;;;;11.20;4.60;;;17.40;99.90;;;;;;10045942;28;20048;-72
2023/10/10 06:46:37;;;;;;;10.93;5.18;;;17.50;99.90;;;;;;10036376;28;20026;-70
2023/10/10 06:51:28;;;;;;;7.65;4.18;;;17.60;99.90;;;;;;10025746;28;20037;-72
2023/10/10 06:56:19;;;;;;;7.15;5.13;;;17.60;99.90;;;;;;10046690;28;20388;-73
2023/10/10 07:01:11;;;;;;;8.15;3.67;;;17.40;99.90;;;;;;10037770;28;20046;-73
2023/10/10 07:06:03;;;;;;;11.40;4.55;;;17.40;99.90;;;;;;10039264;28;20024;-73
2023/10/10 07:10:57;;;;;;;9.23;4.57;;;17.50;99.90;;;;;;10032673;28;20124;-73
2023/10/10 07:15:51;;;;;;;10.85;4.20;;;17.60;99.90;;;;;;10046023;28;20033;-74
2023/10/10 07:25:59;;;;;;;10.73;3.97;;;17.70;99.90;;;;;;10029956;28;20452;-73
2023/10/10 07:30:50;;;;;;;9.18;4.05;;;17.60;99.90;;;;;;10046623;28;20124;-74
2023/10/10 07:35:44;;;;;;;10.00;4.57;;;17.70;99.90;;;;;;10040698;28;20037;-73
2023/10/10 07:40:38;;;;;;;9.85;4.07;;;17.70;99.90;;;;;;10040977;28;20060;-74
2023/10/10 07:50:46;;;;;;;9.18;3.85;;;17.90;99.90;;;;;;10034764;28;20164;-73
2023/10/10 08:00:46;;;;;;;14.85;4.45;;;18.00;99.90;;;;;;10041346;28;20041;-75
2023/10/10 08:05:37;;;;;;;6.85;2.90;;;18.00;99.90;;;;;;10040187;28;20049;-74
2023/10/10 08:10:37;;;;;;;6.80;4.65;;;18.10;99.90;;;;;;10041743;28;20046;-73
2023/10/10 08:15:28;;;;;;;9.43;3.83;;;18.10;99.90;;;;;;10042085;28;20029;-73
2023/10/10 08:25:41;;;;;;;11.98;3.15;;;18.30;99.90;;;;;;10042393;28;20527;-73
2023/10/10 08:30:33;;;;;;;11.30;3.95;;;18.30;99.90;;;;;;10045381;28;20026;-74
2023/10/10 08:35:27;;;;;;;11.25;5.25;;;18.30;99.90;;;;;;10039376;28;20183;-74
2023/10/10 08:40:21;;;;;;;7.90;4.57;;;18.30;99.90;;;;;;10053409;28;20047;-73
2023/10/10 08:45:22;;;;;;;8.25;3.50;;;18.40;99.90;;;;;;10043111;28;20443;-73
2023/10/10 08:50:13;;;;;;;10.07;4.80;;;18.40;99.90;;;;;;10035932;28;20030;-73
2023/10/10 08:55:04;;;;;;;12.82;4.07;;;18.50;99.90;;;;;;10060481;28;20025;-73
2023/10/10 08:59:55;;;;;;;7.60;3.65;;;18.50;99.90;;;;;;10039321;28;20041;-73
2023/10/10 09:04:46;;;;;;;9.57;3.83;;;18.60;99.90;;;;;;10038174;28;20395;-74
2023/10/10 09:09:39;;;;;;;10.65;3.40;;;18.60;99.90;;;;;;10039028;28;20057;-74
2023/10/10 09:14:41;;;;;;;8.57;3.92;;;18.60;99.90;;;;;;10039615;28;20030;-73
2023/10/10 09:19:32;;;;;;;11.40;3.75;;;18.70;99.90;;;;;;10045915;28;20037;-72
2023/10/10 09:24:27;;;;;;;11.95;3.80;;;18.70;99.90;;;;;;10033851;28;20041;-72
2023/10/10 09:29:34;;;;;;;7.57;4.70;;;18.80;99.90;;;;;;10036570;28;20029;-71
2023/10/10 09:34:28;;;;;;;7.60;3.65;;;18.80;99.90;;;;;;10047207;28;20836;-72
2023/10/10 09:39:36;;;;;;;7.10;3.30;;;18.90;99.90;;;;;;10042002;28;20049;-73
2023/10/10 09:44:53;;;;;;;7.75;3.35;;;18.90;99.90;;;;;;10049381;28;20121;-72
2023/10/10 09:49:44;;;;;;;10.02;4.07;;;18.90;99.90;;;;;;10033926;28;20084;-72
2023/10/10 09:54:36;;;;;;;6.43;3.60;;;18.90;99.90;;;;;;10042204;28;20032;-71
2023/10/10 09:59:31;;;;;;;8.00;3.65;;;19.00;99.90;;;;;;10039525;28;20041;-74
2023/10/10 10:04:25;;;;;;;7.95;3.00;;;19.10;99.90;;;;;;10047384;28;20033;-72
2023/10/10 10:09:37;;;;;;;10.35;3.72;;;19.10;99.90;;;;;;10034386;28;20140;-73
2023/10/10 10:14:35;;;;;;;11.57;4.57;;;19.10;99.90;;;;;;10042618;28;20255;-74
2023/10/10 10:19:33;;;;;;;9.13;3.53;;;19.10;99.90;;;;;;10045527;28;20034;-73
2023/10/10 10:24:31;;;;;;;7.22;3.67;;;19.20;99.90;;;;;;10049735;28;20018;-72
2023/10/10 10:29:36;;;;;;;5.55;3.13;;;19.20;99.90;;;;;;10069311;28;20494;-71
2023/10/10 10:39:26;;;;;;;9.70;4.35;;;19.30;99.90;;;;;;10060957;28;20554;-74
2023/10/10 10:44:58;;;;;;;11.48;3.30;;;19.30;99.90;;;;;;10063982;28;20096;-74
2023/10/10 10:49:54;;;;;;;9.05;4.35;;;19.40;99.90;;;;;;10053113;28;20050;-73
2023/10/10 10:54:50;;;;;;;9.88;3.13;;;19.40;99.90;;;;;;10064567;28;20116;-73
2023/10/10 10:59:55;;;;;;;11.45;3.28;;;19.40;99.90;;;;;;10053020;28;20052;-72
2023/10/10 11:04:50;;;;;;;15.90;4.00;;;19.60;99.90;;;;;;10062283;28;20429;-71
2023/10/10 11:09:52;;;;;;;6.40;3.22;;;19.60;99.90;;;;;;10052811;28;20145;-73
2023/10/10 11:14:44;;;;;;;9.60;3.83;;;19.70;99.90;;;;;;10067159;28;20064;-72
2023/10/10 11:19:38;;;;;;;8.57;3.45;;;19.70;99.90;;;;;;10051855;28;20049;-72
2023/10/10 11:24:31;;;;;;;6.68;2.80;;;19.80;99.90;;;;;;10039946;28;20029;-72
2023/10/10 11:29:27;;;;;;;8.00;2.70;;;19.90;99.90;;;;;;10040790;28;20024;-73
2023/10/10 11:34:27;;;;;;;14.90;3.70;;;19.90;99.90;;;;;;10058029;28;20034;-71
2023/10/10 11:39:37;;;;;;;9.23;2.90;;;20.00;99.90;;;;;;10051265;28;20053;-71
2023/10/10 11:44:29;;;;;;;9.75;4.05;;;20.00;99.90;;;;;;10061991;28;20030;-72
2023/10/10 11:49:20;;;;;;;6.90;3.63;;;20.20;99.90;;;;;;10056428;28;20045;-70
2023/10/10 11:54:10;;;;;;;11.00;3.47;;;20.30;99.90;;;;;;10035417;28;20026;-71
2023/10/10 11:59:09;;;;;;;10.52;3.30;;;20.30;99.90;;;;;;10049857;28;20118;-72
2023/10/10 12:04:20;;;;;;;9.52;3.10;;;20.40;99.90;;;;;;10059523;28;20078;-72
2023/10/10 12:09:10;;;;;;;10.73;2.70;;;20.50;99.90;;;;;;10036173;28;20148;-73
2023/10/10 12:14:01;;;;;;;8.82;3.60;;;20.60;99.90;;;;;;10050388;28;20030;-73
2023/10/10 12:18:56;;;;;;;8.98;3.28;;;20.70;99.90;;;;;;10042032;28;20048;-72
2023/10/10 12:23:48;;;;;;;8.35;2.97;;;20.80;99.90;;;;;;10040275;28;20041;-71
2023/10/10 12:28:38;;;;;;;8.90;3.17;;;20.90;99.90;;;;;;10052534;28;20064;-71
2023/10/10 12:33:29;;;;;;;9.82;4.05;;;20.90;99.90;;;;;;10043030;28;20025;-72
2023/10/10 12:38:23;;;;;;;9.75;4.10;;;20.90;99.90;;;;;;10043442;28;20049;-71
2023/10/10 12:43:13;;;;;;;12.18;3.13;;;21.00;99.90;;;;;;10050113;28;20029;-75
2023/10/10 12:48:13;;;;;;;11.00;3.95;;;21.10;99.90;;;;;;10043228;28;20396;-73
2023/10/10 12:53:15;;;;;;;7.75;3.28;;;21.20;99.90;;;;;;10050452;28;20031;-76
2023/10/10 12:58:14;;;;;;;13.98;4.22;;;21.30;99.90;;;;;;10054499;28;20092;-75
2023/10/10 13:03:07;;;;;;;9.82;3.78;;;21.40;99.90;;;;;;10031563;28;20034;-73
2023/10/10 13:08:06;;;;;;;14.07;3.47;;;21.50;99.90;;;;;;10030160;28;20042;-75
2023/10/10 13:12:57;;;;;;;6.07;3.15;;;21.70;99.90;;;;;;10051857;28;20494;-75
2023/10/10 13:17:53;;;;;;;7.57;3.33;;;21.80;99.90;;;;;;10044692;28;20570;-74
2023/10/10 13:22:43;;;;;;;8.40;3.05;;;21.90;99.90;;;;;;10041884;28;20159;-73
2023/10/10 13:27:34;;;;;;;9.90;3.00;;;21.90;99.90;;;;;;10034439;28;20499;-72
2023/10/10 13:32:25;;;;;;;6.03;3.25;;;22.10;99.90;;;;;;10040436;28;20021;-73
2023/10/10 13:37:16;;;;;;;10.38;3.78;;;22.30;99.90;;;;;;10044940;28;20030;-77
2023/10/10 13:42:06;;;;;;;8.02;3.45;;;22.40;99.90;;;;;;10050988;28;20406;-73
2023/10/10 13:46:58;;;;;;;9.55;2.78;;;22.50;99.90;;;;;;10049694;28;20075;-75
2023/10/10 13:51:52;;;;;;;8.15;3.22;;;22.60;99.90;;;;;;10031151;28;20030;-73
2023/10/10 13:56:43;;;;;;;7.68;2.45;;;22.70;99.90;;;;;;10043126;28;20025;-73
2023/10/10 14:01:39;;;;;;;7.95;3.20;;;22.60;99.90;;;;;;10047860;28;20045;-73
2023/10/10 14:06:45;;;;;;;8.95;3.60;;;22.80;99.90;;;;;;10044832;28;20030;-74
2023/10/10 14:11:36;;;;;;;6.97;3.30;;;23.10;99.90;;;;;;10034447;28;20049;-71
2023/10/10 14:16:29;;;;;;;9.00;3.50;;;23.30;99.90;;;;;;10046489;28;20120;-71
2023/10/10 14:21:27;;;;;;;9.88;3.63;;;23.40;99.90;;;;;;10046144;28;20053;-72
2023/10/10 14:26:25;;;;;;;8.30;3.92;;;23.60;99.90;;;;;;10034300;28;20105;-71
2023/10/10 14:31:31;;;;;;;8.88;3.40;;;23.60;99.90;;;;;;10051438;28;20049;-73
2023/10/10 14:36:21;;;;;;;11.00;4.68;;;23.70;99.90;;;;;;10031911;28;20108;-73
2023/10/10 14:41:20;;;;;;;7.18;3.38;;;24.00;99.90;;;;;;10043001;28;20041;-72
2023/10/10 14:46:11;;;;;;;6.18;2.95;;;24.20;99.90;;;;;;10048397;28;20092;-73
2023/10/10 14:51:05;;;;;;;9.75;3.40;;;24.20;99.90;;;;;;10027438;28;20108;-83
2023/10/10 14:55:56;;;;;;;8.63;2.90;;;24.30;99.90;;;;;;10033964;28;20022;-76
2023/10/10 15:00:48;;;;;;;6.15;3.22;;;24.10;99.90;;;;;;10044029;28;20034;-78
2023/10/10 15:05:51;;;;;;;12.27;4.28;;;24.00;99.90;;;;;;10051115;28;20121;-78
2023/10/10 15:10:42;;;;;;;14.27;5.22;;;24.30;99.90;;;;;;10054224;28;20056;-79
2023/10/10 15:15:34;;;;;;;8.35;3.10;;;24.30;99.80;;;;;;10057889;28;20356;-76
2023/10/10 15:20:26;;;;;;;11.10;4.75;;;24.10;99.80;;;;;;10062306;28;20083;-75
2023/10/10 15:25:19;;;;;;;9.48;4.75;;;24.10;99.80;;;;;;10060959;28;20032;-74
2023/10/10 15:30:10;;;;;;;8.75;4.40;;;24.20;99.80;;;;;;10057319;28;20071;-75
2023/10/10 15:35:01;;;;;;;7.90;3.30;;;24.30;99.90;;;;;;10047448;28;20036;-75
2023/10/10 15:39:53;;;;;;;9.35;4.63;;;24.40;99.70;;;;;;10055537;28;20045;-75
2023/10/10 15:44:44;;;;;;;21.83;5.05;;;24.40;99.70;;;;;;10051495;28;20025;-75
2023/10/10 15:49:35;;;;;;;8.23;4.20;;;24.30;99.70;;;;;;10049249;28;20041;-76
2023/10/10 15:54:29;;;;;;;10.55;3.80;;;24.50;99.70;;;;;;10051689;28;20026;-74
2023/10/10 15:59:22;;;;;;;10.98;4.25;;;24.70;99.50;;;;;;10048829;28;20092;-76
2023/10/10 16:04:13;;;;;;;8.30;3.20;;;24.50;99.50;;;;;;10058431;28;20060;-78
2023/10/10 16:09:19;;;;;;;6.90;3.75;;;24.30;99.40;;;;;;10053029;28;20053;-76
2023/10/10 16:14:13;;;;;;;15.40;4.32;;;24.20;99.30;;;;;;10042464;28;20081;-74
2023/10/10 16:19:04;;;;;;;11.35;4.28;;;24.10;99.20;;;;;;10041932;28;20084;-75
2023/10/10 16:23:55;;;;;;;7.93;3.65;;;24.00;99.20;;;;;;10046948;28;20038;-75
2023/10/10 16:28:49;;;;;;;11.70;4.78;;;24.00;99.10;;;;;;10047496;28;20029;-75
2023/10/10 16:33:40;;;;;;;8.88;4.90;;;23.90;99.10;;;;;;10055326;28;20034;-75
2023/10/10 16:38:35;;;;;;;13.63;5.15;;;23.90;99.00;;;;;;10054945;28;20037;-76
2023/10/10 16:43:25;;;;;;;;;;;23.80;99.00;;;;;;10049347;28;20029;-74
2023/10/10 16:48:16;;;;;;;10.60;4.72;;;23.70;98.90;;;;;;10050264;28;19909;-75
2023/10/10 16:53:08;;;;;;;12.88;5.90;;;23.60;99.20;;;;;;10033881;28;20037;-76
2023/10/10 16:57:58;;;;;;;11.45;5.20;;;23.60;99.30;;;;;;10044351;28;20483;-75
2023/10/10 17:02:49;;;;;;;12.23;4.85;;;23.50;99.30;;;;;;10043645;28;20034;-75
2023/10/10 17:07:41;;;;;;;11.73;5.05;;;23.50;99.40;;;;;;10036628;28;20049;-75
2023/10/10 17:12:31;;;;;;;13.85;5.85;;;23.50;99.40;;;;;;10034139;28;20117;-76
2023/10/10 17:17:24;;;;;;;11.82;6.32;;;23.40;99.50;;;;;;10061434;28;20471;-74
2023/10/10 17:22:16;;;;;;;12.90;5.47;;;23.40;99.60;;;;;;10047292;28;20045;-74
2023/10/10 17:27:07;;;;;;;16.95;6.30;;;23.40;99.80;;;;;;10030583;28;20017;-78
2023/10/10 17:31:58;;;;;;;13.63;6.28;;;23.30;99.80;;;;;;10057642;28;20043;-75
2023/10/10 17:36:50;;;;;;;13.52;6.00;;;23.30;99.90;;;;;;10043355;28;20029;-76
2023/10/10 17:41:41;;;;;;;18.10;7.20;;;23.30;99.90;;;;;;10058120;28;20041;-74
2023/10/10 17:46:32;;;;;;;16.40;7.72;;;23.30;99.90;;;;;;10048681;28;20099;-74
2023/10/10 17:51:33;;;;;;;20.38;9.88;;;23.20;99.90;;;;;;10035213;28;20032;-74
2023/10/10 17:56:23;;;;;;;19.55;8.07;;;23.20;99.90;;;;;;10053214;28;20502;-74
2023/10/10 18:01:19;;;;;;;19.35;7.85;;;23.20;99.90;;;;;;10038706;28;20049;-73
2023/10/10 18:06:20;;;;;;;21.60;8.88;;;23.20;99.90;;;;;;10040885;28;20238;-72
2023/10/10 18:11:14;;;;;;;17.65;8.00;;;23.10;99.90;;;;;;10051976;28;20054;-73
2023/10/10 18:16:09;;;;;;;21.73;9.43;;;23.10;99.90;;;;;;10066732;28;20099;-73
2023/10/10 18:20:59;;;;;;;16.17;9.35;;;23.10;99.90;;;;;;10058573;28;20035;-75
2023/10/10 18:25:50;;;;;;;17.83;9.25;;;23.10;99.90;;;;;;10069031;28;20112;-74
2023/10/10 18:30:41;;;;;;;22.95;10.52;;;22.90;99.90;;;;;;10061526;28;20025;-74
2023/10/10 18:35:31;;;;;;;19.70;9.82;;;22.80;99.90;;;;;;10054997;28;20018;-74
2023/10/10 18:40:22;;;;;;;24.05;10.27;;;22.70;99.90;;;;;;10044528;28;20412;-75
2023/10/10 18:45:15;;;;;;;18.90;8.85;;;22.70;99.90;;;;;;10055888;28;20282;-74
2023/10/10 18:50:08;;;;;;;24.20;10.23;;;22.60;99.90;;;;;;10030387;28;20033;-73
2023/10/10 18:55:00;;;;;;;22.67;8.68;;;22.60;99.90;;;;;;10060269;28;20017;-72
2023/10/10 18:59:51;;;;;;;21.27;9.48;;;22.60;99.90;;;;;;10054396;28;20091;-75
2023/10/10 19:04:42;;;;;;;18.50;9.93;;;22.40;99.90;;;;;;10039608;28;20068;-74
2023/10/10 19:09:33;;;;;;;28.48;11.10;;;22.40;99.90;;;;;;10050191;28;20052;-73
2023/10/10 19:14:33;;;;;;;23.02;9.93;;;22.40;99.90;;;;;;10029226;28;20025;-73
2023/10/10 19:19:24;;;;;;;24.27;10.88;;;22.30;99.90;;;;;;10033023;28;20029;-73
2023/10/10 19:24:14;;;;;;;18.08;8.45;;;22.30;99.90;;;;;;10032417;28;20017;-75
2023/10/10 19:29:07;;;;;;;19.33;8.57;;;22.30;99.90;;;;;;10037863;28;20025;-74
2023/10/10 19:33:57;;;;;;;18.48;8.77;;;22.20;99.90;;;;;;10029907;28;20026;-75
2023/10/10 19:38:48;;;;;;;25.33;10.07;;;22.10;99.90;;;;;;10031046;28;20131;-76
2023/10/10 19:43:39;;;;;;;16.40;8.38;;;22.10;99.90;;;;;;10038596;28;20030;-74
2023/10/10 19:48:29;;;;;;;20.90;9.23;;;22.10;99.90;;;;;;10023910;28;20022;-76
2023/10/10 19:53:21;;;;;;;23.65;9.80;;;22.00;99.90;;;;;;10033862;28;20092;-76
2023/10/10 19:58:12;;;;;;;26.45;9.05;;;22.00;99.90;;;;;;10043079;28;20020;-77
2023/10/10 20:03:06;;;;;;;25.92;10.93;;;22.00;99.90;;;;;;10039272;28;20486;-74
2023/10/10 20:07:58;;;;;;;25.38;10.98;;;22.00;99.90;;;;;;10050167;28;20136;-74
2023/10/10 20:12:54;;;;;;;20.00;9.52;;;21.90;99.90;;;;;;10054321;28;20061;-78
2023/10/10 20:17:45;;;;;;;16.48;7.63;;;21.90;99.90;;;;;;10043783;28;20022;-76
2023/10/10 20:22:36;;;;;;;16.13;7.63;;;21.80;99.90;;;;;;10045695;28;20048;-75
2023/10/10 20:27:30;;;;;;;16.00;7.18;;;21.80;99.90;;;;;;10025459;28;20480;-79
2023/10/10 20:32:21;;;;;;;16.10;6.65;;;21.80;99.90;;;;;;10053236;28;20025;-74
2023/10/10 20:37:11;;;;;;;16.65;7.70;;;21.90;99.90;;;;;;10047433;28;20030;-75
2023/10/10 20:42:02;;;;;;;12.77;6.45;;;21.90;99.90;;;;;;10053129;28;20052;-76
2023/10/10 20:46:53;;;;;;;13.40;6.32;;;21.90;99.90;;;;;;10032956;28;20026;-74
2023/10/10 20:51:44;;;;;;;13.10;5.82;;;21.90;99.90;;;;;;10047350;28;20029;-73
2023/10/10 20:56:35;;;;;;;12.55;6.40;;;21.80;99.90;;;;;;10051844;28;20013;-74
2023/10/10 21:01:27;;;;;;;14.55;4.80;;;21.80;99.90;;;;;;10041737;28;20049;-73
2023/10/10 21:06:17;;;;;;;9.93;6.05;;;21.70;99.90;;;;;;10057345;28;20032;-72
2023/10/10 21:11:11;;;;;;;13.77;7.22;;;21.80;99.90;;;;;;10046421;28;20056;-73
2023/10/10 21:16:09;;;;;;;10.48;5.40;;;21.80;99.90;;;;;;10050090;28;20041;-72
2023/10/10 21:21:02;;;;;;;9.57;5.03;;;21.70;99.90;;;;;;10039478;28;20038;-73
2023/10/10 21:25:53;;;;;;;12.73;5.47;;;21.70;99.90;;;;;;10031876;28;20051;-73
2023/10/10 21:30:44;;;;;;;10.77;4.65;;;21.60;99.90;;;;;;10046527;28;20037;-73
2023/10/10 21:35:35;;;;;;;11.90;5.15;;;21.50;99.90;;;;;;10026823;28;20415;-73
2023/10/10 21:40:27;;;;;;;14.80;4.97;;;21.50;99.90;;;;;;10046303;28;20095;-73
2023/10/10 21:45:19;;;;;;;12.02;5.35;;;21.30;99.90;;;;;;10033634;28;20080;-73
2023/10/10 21:50:10;;;;;;;10.75;4.78;;;21.20;99.90;;;;;;10024805;28;20030;-73
2023/10/10 21:55:06;;;;;;;10.45;3.78;;;21.20;99.90;;;;;;10041566;28;20495;-74
2023/10/10 21:59:57;;;;;;;9.80;4.47;;;21.20;99.90;;;;;;10055642;28;20304;-73
2023/10/10 22:04:47;;;;;;;10.55;5.20;;;21.10;99.90;;;;;;10043811;28;20025;-73
2023/10/10 22:09:38;;;;;;;10.23;4.82;;;21.10;99.90;;;;;;10036031;28;20053;-73
2023/10/10 22:14:28;;;;;;;11.48;6.20;;;21.00;99.90;;;;;;10049675;28;20035;-73
2023/10/10 22:19:19;;;;;;;9.48;4.05;;;20.90;99.90;;;;;;10032049;28;20048;-73
2023/10/10 22:24:14;;;;;;;8.70;4.78;;;20.80;99.90;;;;;;10039331;28;20041;-73
2023/10/10 22:29:04;;;;;;;9.02;3.83;;;20.80;99.90;;;;;;10050815;28;20503;-73
2023/10/10 22:33:55;;;;;;;12.25;5.72;;;20.70;99.90;;;;;;10035833;28;20038;-73
2023/10/10 22:38:46;;;;;;;10.32;4.95;;;20.60;99.90;;;;;;10045462;28;20121;-73
2023/10/10 22:43:36;;;;;;;11.88;5.07;;;20.60;99.90;;;;;;10040350;28;20030;-73
2023/10/10 22:48:27;;;;;;;7.75;3.85;;;20.60;99.90;;;;;;10036759;28;20052;-73
2023/10/10 22:53:17;;;;;;;13.05;4.18;;;20.40;99.90;;;;;;10038160;28;20444;-73
2023/10/10 22:58:08;;;;;;;11.32;4.55;;;20.40;99.90;;;;;;10037938;28;20033;-74
2023/10/10 23:03:00;;;;;;;8.05;4.18;;;20.40;99.90;;;;;;10051474;28;20025;-73
2023/10/10 23:07:50;;;;;;;9.35;4.45;;;20.30;99.90;;;;;;10032469;28;20044;-72
2023/10/10 23:12:42;;;;;;;14.40;5.13;;;20.30;99.90;;;;;;10041685;28;20042;-73
2023/10/10 23:17:33;;;;;;;10.40;4.78;;;20.30;99.90;;;;;;10044378;28;20188;-73
2023/10/10 23:22:23;;;;;;;8.70;3.75;;;20.30;99.90;;;;;;10041361;28;20035;-73
2023/10/10 23:27:14;;;;;;;11.80;4.15;;;20.30;99.90;;;;;;10047232;28;20026;-72
2023/10/10 23:32:05;;;;;;;10.20;4.00;;;20.30;99.90;;;;;;10051587;28;20024;-72
2023/10/10 23:36:56;;;;;;;7.68;3.70;;;20.10;99.90;;;;;;10041342;28;20029;-73
2023/10/10 23:41:47;;;;;;;7.85;3.50;;;20.20;99.90;;;;;;10050855;28;20483;-73
2023/10/10 23:46:37;;;;;;;11.07;4.32;;;20.20;99.90;;;;;;10042677;28;20030;-72
2023/10/10 23:51:28;;;;;;;9.45;3.72;;;20.10;99.90;;;;;;10039415;28;20022;-72
2023/10/10 23:56:19;;;;;;;11.93;5.43;;;20.00;99.90;;;;;;10045826;28;20407;-74
